Time;durP1;ratioP1;P1;durP2;ratioP2;P2;SDS_P1;SDS_P2;PMS_P1;PMS_P2;Temp;Humidity;BMP_temperature;BMP_pressure;BME280_temperature;BME280_humidity;BME280_pressure;Samples;Min_cycle;Max_cycle;Signal;HPM_P1;HPM_P2
2022/01/03 00:01:20;;;;;;;12.43;7.03;;;19.70;49.20;;;;;;5036323;28;20327;-72
2022/01/03 00:03:49;;;;;;;9.50;6.53;;;19.60;49.60;;;;;;5035934;28;20200;-71
2022/01/03 00:06:19;;;;;;;12.10;7.88;;;19.60;49.00;;;;;;5018572;28;20243;-72
2022/01/03 00:08:46;;;;;;;11.20;7.03;;;19.60;49.00;;;;;;5035280;28;20246;-73
2022/01/03 00:11:13;;;;;;;10.80;7.55;;;19.70;49.10;;;;;;5034822;28;20200;-72
2022/01/03 00:13:41;;;;;;;10.10;6.68;;;19.60;49.30;;;;;;5019368;28;20204;-71
2022/01/03 00:16:08;;;;;;;10.82;6.10;;;19.60;49.00;;;;;;5021017;28;20202;-72
2022/01/03 00:18:35;;;;;;;10.25;6.90;;;19.60;48.70;;;;;;5022005;28;20222;-71
2022/01/03 00:21:06;;;;;;;12.43;6.80;;;19.60;49.60;;;;;;5018076;28;20303;-70
2022/01/03 00:23:33;;;;;;;9.77;6.35;;;19.70;49.60;;;;;;5035388;28;20550;-69
2022/01/03 00:26:01;;;;;;;11.25;6.97;;;19.60;49.30;;;;;;5017490;28;20651;-72
2022/01/03 00:28:34;;;;;;;9.70;6.20;;;19.60;49.70;;;;;;5017198;28;20220;-72
2022/01/03 00:31:01;;;;;;;10.60;6.80;;;19.60;49.00;;;;;;5016711;28;20204;-72
2022/01/03 00:33:28;;;;;;;10.25;6.68;;;19.60;49.00;;;;;;5034374;28;20201;-71
2022/01/03 00:35:58;;;;;;;10.88;6.90;;;19.60;49.70;;;;;;5017135;28;20222;-71
2022/01/03 00:38:28;;;;;;;11.95;7.38;;;19.60;49.60;;;;;;5016658;28;20303;-71
2022/01/03 00:40:55;;;;;;;10.27;6.50;;;19.60;49.70;;;;;;5034334;28;20250;-70
2022/01/03 00:43:23;;;;;;;9.18;6.70;;;19.60;49.20;;;;;;5033002;28;20199;-72
2022/01/03 00:45:52;;;;;;;10.30;7.22;;;19.60;49.00;;;;;;5016441;28;20212;-71
2022/01/03 00:48:19;;;;;;;12.25;6.90;;;19.60;49.20;;;;;;5016493;28;20227;-71
2022/01/03 00:50:47;;;;;;;10.80;6.15;;;19.60;49.20;;;;;;5016252;28;20211;-69
2022/01/03 00:53:15;;;;;;;7.75;6.13;;;19.60;48.90;;;;;;5016481;28;20191;-72
2022/01/03 00:56:02;;;;;;;11.10;6.65;;;19.60;49.10;;;;;;5015895;28;20192;-71
2022/01/03 00:58:31;;;;;;;9.18;6.75;;;19.60;48.90;;;;;;5016443;28;20227;-70
2022/01/03 01:00:58;;;;;;;10.75;6.72;;;19.60;49.00;;;;;;5016350;28;20280;-73
2022/01/03 01:03:29;;;;;;;10.35;6.40;;;19.60;48.70;;;;;;5016163;28;20235;-71
2022/01/03 01:05:56;;;;;;;7.75;5.63;;;19.60;48.80;;;;;;5016355;28;20220;-72
2022/01/03 01:08:26;;;;;;;9.02;6.35;;;19.60;48.70;;;;;;5016124;28;20222;-69
2022/01/03 01:10:54;;;;;;;9.82;5.75;;;19.60;48.60;;;;;;5016155;28;20278;-69
2022/01/03 01:13:22;;;;;;;9.68;6.10;;;19.60;48.50;;;;;;5015451;28;20254;-71
2022/01/03 01:15:50;;;;;;;8.13;6.50;;;19.60;48.80;;;;;;5016249;28;20188;-71
2022/01/03 01:18:17;;;;;;;9.20;5.93;;;19.60;48.70;;;;;;5015980;28;20251;-72
2022/01/03 01:20:47;;;;;;;9.38;5.57;;;19.60;48.60;;;;;;5015895;28;20199;-71
2022/01/03 01:23:14;;;;;;;8.45;5.68;;;19.60;48.40;;;;;;5032393;28;20206;-70
2022/01/03 01:28:28;;;;;;;9.40;6.40;;;19.50;48.40;;;;;;5015727;28;20699;-69
2022/01/03 01:30:58;;;;;;;9.15;5.38;;;19.60;48.70;;;;;;5015822;28;20215;-71
2022/01/03 01:33:25;;;;;;;6.85;5.50;;;19.60;48.60;;;;;;5033213;28;20710;-72
2022/01/03 01:35:56;;;;;;;7.60;5.53;;;19.50;48.50;;;;;;5016024;28;20305;-72
2022/01/03 01:38:30;;;;;;;10.10;5.38;;;19.50;48.30;;;;;;5015634;28;20223;-71
2022/01/03 01:41:00;;;;;;;8.95;5.30;;;19.50;48.20;;;;;;5016020;28;20710;-70
2022/01/03 01:43:34;;;;;;;9.45;5.45;;;19.50;48.30;;;;;;5015655;28;20200;-71
2022/01/03 01:46:05;;;;;;;8.70;5.50;;;19.50;48.30;;;;;;5015684;28;20578;-71
2022/01/03 01:48:33;;;;;;;9.20;5.63;;;19.50;48.20;;;;;;5031916;28;20224;-70
2022/01/03 01:51:01;;;;;;;7.80;5.38;;;19.50;48.30;;;;;;5032051;28;20208;-71
2022/01/03 01:53:29;;;;;;;8.07;5.25;;;19.50;48.30;;;;;;5031950;28;20288;-73
2022/01/03 01:55:59;;;;;;;7.45;4.78;;;19.50;48.10;;;;;;5018939;28;20216;-72
2022/01/03 01:58:30;;;;;;;9.82;5.80;;;19.50;48.20;;;;;;5019648;28;20226;-72
2022/01/03 02:01:02;;;;;;;7.63;4.95;;;19.40;48.30;;;;;;5035982;28;20200;-72
2022/01/03 02:03:46;;;;;;;6.28;4.53;;;19.50;48.30;;;;;;5019327;28;20551;-72
2022/01/03 02:06:27;;;;;;;7.70;5.03;;;19.40;48.00;;;;;;5019284;28;20211;-72
2022/01/03 02:09:04;;;;;;;8.18;4.80;;;19.40;48.10;;;;;;5023423;28;20203;-73
2022/01/03 02:11:48;;;;;;;6.88;4.97;;;19.40;48.00;;;;;;5030915;28;20192;-71
2022/01/03 02:14:15;;;;;;;6.53;4.70;;;19.40;47.90;;;;;;5020692;28;20250;-72
2022/01/03 02:16:43;;;;;;;6.93;4.80;;;19.40;48.00;;;;;;5036123;28;20219;-72
2022/01/03 02:19:11;;;;;;;7.10;5.30;;;19.40;48.40;;;;;;5020198;28;20192;-71
2022/01/03 02:21:40;;;;;;;8.13;4.80;;;19.40;48.20;;;;;;5021185;28;20200;-72
2022/01/03 02:24:11;;;;;;;7.30;5.00;;;19.40;48.10;;;;;;5038011;28;20188;-72
2022/01/03 02:26:40;;;;;;;8.48;4.30;;;19.40;48.00;;;;;;5020764;28;20224;-72
2022/01/03 02:29:08;;;;;;;7.53;5.00;;;19.40;48.10;;;;;;5020445;28;20250;-73
2022/01/03 02:31:36;;;;;;;6.40;4.60;;;19.40;48.10;;;;;;5019428;28;20200;-69
2022/01/03 02:34:03;;;;;;;7.25;4.80;;;19.40;48.40;;;;;;5035736;28;20219;-69
2022/01/03 02:36:31;;;;;;;6.90;4.78;;;19.40;48.10;;;;;;5019373;28;20216;-71
2022/01/03 02:39:00;;;;;;;6.85;4.25;;;19.40;48.60;;;;;;5019315;28;20203;-71
2022/01/03 02:41:28;;;;;;;6.03;4.22;;;19.40;48.30;;;;;;5019187;28;20200;-72
2022/01/03 02:43:58;;;;;;;6.00;4.40;;;19.40;48.30;;;;;;5019077;28;20632;-71
2022/01/03 02:46:26;;;;;;;5.90;4.35;;;19.30;48.30;;;;;;5018838;28;20301;-71
2022/01/03 02:48:54;;;;;;;6.38;4.47;;;19.30;48.30;;;;;;5018913;28;20242;-72
2022/01/03 02:51:21;;;;;;;7.60;4.35;;;19.30;48.30;;;;;;5018788;28;20591;-72
2022/01/03 02:53:49;;;;;;;5.53;4.20;;;19.30;48.20;;;;;;5019060;28;20679;-71
2022/01/03 02:56:18;;;;;;;5.60;4.50;;;19.30;48.40;;;;;;5018936;28;20266;-70
2022/01/03 02:58:45;;;;;;;6.32;4.20;;;19.30;48.40;;;;;;5018472;28;20704;-72
2022/01/03 03:01:12;;;;;;;6.47;4.53;;;19.20;48.30;;;;;;5024377;28;20263;-71
2022/01/03 03:03:50;;;;;;;5.55;4.20;;;19.20;48.30;;;;;;5021051;28;20262;-72
2022/01/03 03:06:18;;;;;;;5.00;4.15;;;19.20;48.30;;;;;;5017936;28;20235;-71
2022/01/03 03:08:45;;;;;;;5.18;4.38;;;19.20;48.30;;;;;;5018090;28;20692;-72
2022/01/03 03:11:12;;;;;;;6.93;4.32;;;19.20;48.50;;;;;;5017651;28;20702;-71
2022/01/03 03:13:42;;;;;;;8.00;4.38;;;19.20;48.40;;;;;;5017797;28;20200;-71
2022/01/03 03:16:10;;;;;;;6.05;4.07;;;19.20;48.40;;;;;;5017751;28;20571;-71
2022/01/03 03:18:37;;;;;;;6.38;4.22;;;19.20;48.50;;;;;;5017533;28;20228;-73
2022/01/03 03:21:04;;;;;;;5.38;3.88;;;19.10;48.20;;;;;;5034089;28;20290;-72
2022/01/03 03:23:32;;;;;;;6.75;4.18;;;19.20;48.50;;;;;;5017403;28;20203;-69
2022/01/03 03:25:59;;;;;;;4.78;3.92;;;19.20;48.60;;;;;;5034967;28;20572;-72
2022/01/03 03:28:27;;;;;;;5.82;4.03;;;19.10;48.30;;;;;;5034945;28;20291;-72
2022/01/03 03:31:00;;;;;;;5.88;4.13;;;19.10;48.40;;;;;;5017100;28;20601;-72
2022/01/03 03:33:38;;;;;;;6.25;3.80;;;19.10;48.40;;;;;;5017855;28;20203;-71
2022/01/03 03:36:06;;;;;;;4.60;4.00;;;19.10;48.30;;;;;;5016982;28;20566;-71
2022/01/03 03:38:33;;;;;;;5.63;3.78;;;19.10;48.50;;;;;;5016884;28;20730;-71
2022/01/03 03:41:05;;;;;;;5.68;4.15;;;19.10;48.50;;;;;;5016756;28;20706;-70
2022/01/03 03:43:37;;;;;;;4.45;3.70;;;19.10;48.60;;;;;;5016679;28;20196;-71
2022/01/03 03:46:10;;;;;;;6.20;4.35;;;19.10;49.10;;;;;;5016667;28;20311;-71
2022/01/03 03:48:38;;;;;;;5.70;3.78;;;19.00;48.40;;;;;;5033234;28;20200;-71
2022/01/03 03:51:05;;;;;;;7.28;4.28;;;19.00;48.50;;;;;;5017118;28;20223;-70
2022/01/03 03:53:34;;;;;;;6.00;3.30;;;19.00;48.40;;;;;;5016592;28;20196;-71
2022/01/03 03:56:02;;;;;;;5.85;3.95;;;19.00;48.40;;;;;;5032914;28;20275;-71
2022/01/03 03:58:32;;;;;;;6.70;3.90;;;19.00;48.40;;;;;;5016387;28;20212;-72
2022/01/03 04:01:00;;;;;;;6.65;3.67;;;19.00;48.40;;;;;;5016989;28;20612;-70
2022/01/03 04:03:28;;;;;;;6.57;3.83;;;18.90;48.40;;;;;;5016331;28;20208;-70
2022/01/03 04:05:55;;;;;;;4.97;3.60;;;19.00;48.50;;;;;;5035952;28;20204;-72
2022/01/03 04:08:22;;;;;;;4.90;3.63;;;19.00;48.50;;;;;;5017341;28;20220;-71
2022/01/03 04:10:51;;;;;;;5.43;3.72;;;18.90;48.30;;;;;;5033616;28;20196;-71
2022/01/03 04:13:18;;;;;;;5.53;3.45;;;18.90;48.70;;;;;;5016616;28;20246;-70
2022/01/03 04:15:45;;;;;;;4.80;3.50;;;18.90;48.70;;;;;;5016429;28;20202;-72
2022/01/03 04:18:12;;;;;;;5.10;3.90;;;18.80;48.50;;;;;;5015382;28;20227;-71
2022/01/03 04:20:42;;;;;;;4.93;3.42;;;18.90;48.60;;;;;;5016383;28;20223;-69
2022/01/03 04:23:09;;;;;;;3.58;3.05;;;18.80;48.40;;;;;;5016427;28;20207;-69
2022/01/03 04:25:36;;;;;;;4.95;3.13;;;18.80;48.40;;;;;;5015861;28;20200;-71
2022/01/03 04:28:03;;;;;;;3.72;2.75;;;18.80;48.40;;;;;;5015986;28;20228;-71
2022/01/03 04:30:31;;;;;;;4.03;3.33;;;18.90;48.40;;;;;;5032469;28;20202;-71
2022/01/03 04:32:58;;;;;;;4.95;3.13;;;18.90;48.30;;;;;;5015950;28;20210;-72
2022/01/03 04:35:27;;;;;;;4.50;3.10;;;18.90;48.30;;;;;;5033405;28;20188;-72
2022/01/03 04:37:56;;;;;;;5.22;3.60;;;18.90;48.10;;;;;;5015830;28;20555;-72
2022/01/03 04:40:23;;;;;;;4.65;3.30;;;18.90;48.10;;;;;;5015796;28;20200;-70
2022/01/03 04:42:51;;;;;;;5.43;3.47;;;18.90;48.10;;;;;;5032335;28;20195;-69
2022/01/03 04:45:19;;;;;;;4.53;2.97;;;18.90;48.10;;;;;;5015806;28;20575;-71
2022/01/03 04:47:46;;;;;;;4.90;3.20;;;18.90;47.90;;;;;;5015620;28;20699;-71
2022/01/03 04:50:13;;;;;;;3.42;3.10;;;18.90;47.90;;;;;;5015711;28;20245;-69
2022/01/03 04:52:40;;;;;;;4.30;3.15;;;19.00;48.00;;;;;;5015648;28;20200;-73
2022/01/03 04:55:10;;;;;;;4.60;3.20;;;19.00;47.90;;;;;;5031901;28;20207;-72
2022/01/03 04:57:37;;;;;;;5.00;3.22;;;19.00;47.90;;;;;;5015286;28;20231;-71
2022/01/03 05:00:05;;;;;;;3.88;3.00;;;19.00;47.90;;;;;;5015537;28;20196;-69
2022/01/03 05:02:33;;;;;;;4.38;3.20;;;19.00;47.90;;;;;;5032119;28;20196;-70
2022/01/03 05:05:01;;;;;;;4.25;3.10;;;19.00;47.90;;;;;;5031764;28;20629;-71
2022/01/03 05:07:28;;;;;;;4.18;3.47;;;19.00;47.90;;;;;;5031886;28;20228;-72
2022/01/03 05:09:56;;;;;;;3.05;2.63;;;19.00;47.90;;;;;;5015306;28;20200;-71
2022/01/03 05:12:25;;;;;;;3.55;3.25;;;19.00;47.90;;;;;;5015769;28;20200;-71
2022/01/03 05:14:53;;;;;;;5.60;2.85;;;19.00;48.00;;;;;;5016001;28;20200;-70
2022/01/03 05:17:20;;;;;;;3.50;3.00;;;19.00;48.10;;;;;;5015470;28;20215;-70
2022/01/03 05:19:47;;;;;;;4.78;3.30;;;19.00;48.20;;;;;;5015723;28;20204;-70
2022/01/03 05:22:15;;;;;;;4.63;3.40;;;19.00;48.60;;;;;;5016973;28;20246;-69
2022/01/03 05:24:42;;;;;;;3.58;3.15;;;19.10;49.80;;;;;;5015071;28;20299;-71
2022/01/03 05:27:09;;;;;;;5.55;3.35;;;19.10;50.00;;;;;;5032738;28;20220;-70
2022/01/03 05:29:37;;;;;;;3.90;3.25;;;19.10;50.00;;;;;;5018430;28;20206;-68
2022/01/03 05:32:05;;;;;;;6.50;3.03;;;19.10;50.00;;;;;;5019394;28;20731;-67
2022/01/03 05:34:32;;;;;;;6.03;3.20;;;19.10;49.50;;;;;;5019207;28;20199;-70
2022/01/03 05:36:59;;;;;;;3.30;2.88;;;19.20;49.90;;;;;;5019128;28;20244;-70
2022/01/03 05:39:26;;;;;;;3.95;3.15;;;19.20;49.80;;;;;;5019711;28;20202;-69
2022/01/03 05:41:54;;;;;;;5.13;3.33;;;19.20;49.60;;;;;;5018859;28;20196;-72
2022/01/03 05:44:21;;;;;;;3.88;3.10;;;19.20;49.90;;;;;;5019066;28;20199;-71
2022/01/03 05:46:50;;;;;;;5.13;3.20;;;19.20;49.60;;;;;;5019281;28;20227;-69
2022/01/03 05:49:17;;;;;;;5.53;3.17;;;19.20;49.60;;;;;;5019394;28;20196;-69
2022/01/03 05:51:45;;;;;;;4.85;3.00;;;19.20;49.20;;;;;;5019910;28;20636;-72
2022/01/03 05:54:12;;;;;;;4.18;2.95;;;19.30;49.80;;;;;;5020894;28;20221;-70
2022/01/03 05:56:40;;;;;;;4.05;2.75;;;19.30;49.70;;;;;;5020102;28;20211;-70
2022/01/03 05:59:08;;;;;;;6.05;2.90;;;19.30;49.90;;;;;;5019741;28;20196;-71
2022/01/03 06:01:38;;;;;;;3.83;3.05;;;19.30;49.10;;;;;;5036094;28;20192;-68
2022/01/03 06:04:15;;;;;;;3.53;2.75;;;19.40;48.60;;;;;;5019224;28;20656;-71
2022/01/03 06:09:42;;;;;;;4.38;2.80;;;19.40;48.90;;;;;;5018783;28;20204;-70
2022/01/03 06:12:10;;;;;;;5.18;2.92;;;19.40;48.70;;;;;;5019085;28;20289;-71
2022/01/03 06:14:44;;;;;;;3.17;2.45;;;19.40;48.60;;;;;;5018655;28;20241;-70
2022/01/03 06:17:13;;;;;;;3.17;2.80;;;19.40;48.50;;;;;;5018667;28;20277;-70
2022/01/03 06:19:42;;;;;;;3.65;3.00;;;19.40;48.50;;;;;;5018807;28;20224;-70
2022/01/03 06:22:11;;;;;;;3.72;2.90;;;19.40;48.40;;;;;;5018322;28;20200;-70
2022/01/03 06:24:40;;;;;;;3.58;2.95;;;19.40;48.30;;;;;;5018379;28;20203;-69
2022/01/03 06:27:07;;;;;;;3.70;2.90;;;19.40;48.30;;;;;;5017977;28;20265;-70
2022/01/03 06:29:35;;;;;;;3.30;2.70;;;19.40;48.20;;;;;;5017980;28;20247;-71
2022/01/03 06:32:03;;;;;;;3.70;3.20;;;19.40;48.10;;;;;;5034522;28;20672;-71
2022/01/03 06:34:30;;;;;;;4.60;3.05;;;19.40;48.10;;;;;;5018235;28;20218;-70
2022/01/03 06:36:58;;;;;;;4.63;3.00;;;19.40;48.20;;;;;;5017987;28;20304;-68
2022/01/03 06:39:27;;;;;;;3.28;2.60;;;19.40;48.30;;;;;;5017970;28;20234;-72
2022/01/03 06:41:54;;;;;;;5.63;3.00;;;19.40;48.30;;;;;;5017332;28;20196;-70
2022/01/03 06:44:22;;;;;;;3.28;2.63;;;19.50;48.40;;;;;;5017888;28;20203;-71
2022/01/03 06:46:50;;;;;;;2.78;2.58;;;19.40;48.40;;;;;;5017940;28;20278;-68
2022/01/03 06:49:17;;;;;;;2.97;2.38;;;19.40;48.20;;;;;;5017568;28;20203;-71
2022/01/03 06:51:44;;;;;;;4.38;2.65;;;19.50;48.30;;;;;;5018302;28;20192;-70
2022/01/03 06:54:15;;;;;;;5.40;2.30;;;19.50;48.40;;;;;;5017820;28;20196;-69
2022/01/03 06:56:50;;;;;;;3.78;2.55;;;19.50;48.30;;;;;;5017757;28;20216;-70
2022/01/03 06:59:17;;;;;;;3.65;2.58;;;19.50;48.20;;;;;;5017621;28;20203;-70
2022/01/03 07:01:45;;;;;;;3.80;2.70;;;19.50;48.10;;;;;;5017518;28;20675;-70
2022/01/03 07:04:13;;;;;;;3.55;2.63;;;19.60;48.00;;;;;;5017608;28;20618;-69
2022/01/03 07:06:40;;;;;;;3.30;2.35;;;19.60;47.90;;;;;;5017580;28;20216;-68
2022/01/03 07:09:07;;;;;;;4.60;2.50;;;19.50;47.70;;;;;;5035099;28;20598;-71
2022/01/03 07:11:36;;;;;;;2.60;2.40;;;19.50;47.60;;;;;;5017343;28;20203;-71
2022/01/03 07:18:56;;;;;;;3.33;2.60;;;19.50;47.60;;;;;;5017274;28;20246;-70
2022/01/03 07:19:39;;;;;;;3.30;2.60;;;19.60;47.60;;;;;;5016738;28;20605;-68
2022/01/03 07:22:07;;;;;;;3.00;2.60;;;19.50;47.60;;;;;;5033615;28;20254;-71
2022/01/03 07:24:34;;;;;;;3.72;2.78;;;19.60;47.60;;;;;;5016702;28;20292;-70
2022/01/03 07:27:03;;;;;;;3.03;2.47;;;19.60;47.60;;;;;;5016841;28;20220;-71
2022/01/03 07:29:30;;;;;;;3.05;2.53;;;19.60;47.60;;;;;;5033181;28;20199;-68
2022/01/03 07:31:57;;;;;;;3.80;2.70;;;19.60;47.60;;;;;;5016789;28;20200;-71
2022/01/03 07:34:24;;;;;;;3.75;2.70;;;19.60;47.50;;;;;;5016887;28;20202;-70
2022/01/03 07:36:51;;;;;;;3.45;2.35;;;19.60;47.50;;;;;;5016610;28;20700;-70
2022/01/03 07:39:19;;;;;;;4.05;2.58;;;19.60;47.50;;;;;;5016625;28;20196;-69
2022/01/03 07:41:45;;;;;;;3.10;2.50;;;19.60;47.50;;;;;;5016811;28;20203;-71
2022/01/03 07:44:14;;;;;;;3.47;2.63;;;19.60;47.50;;;;;;5034174;28;20274;-70
2022/01/03 07:46:41;;;;;;;2.78;2.47;;;19.60;47.50;;;;;;5016218;28;20261;-67
2022/01/03 07:49:08;;;;;;;3.67;2.50;;;19.60;47.40;;;;;;5034226;28;20739;-70
2022/01/03 07:51:35;;;;;;;4.03;2.72;;;19.60;47.40;;;;;;5015620;28;20257;-71
2022/01/03 07:54:02;;;;;;;2.90;2.53;;;19.60;47.40;;;;;;5016474;28;20283;-70
2022/01/03 07:56:29;;;;;;;5.15;2.90;;;19.60;47.30;;;;;;5034021;28;20210;-68
2022/01/03 07:58:56;;;;;;;3.67;2.70;;;19.60;47.30;;;;;;5016350;28;20664;-70
2022/01/03 08:01:25;;;;;;;3.85;2.50;;;19.60;47.20;;;;;;5016024;28;20200;-70
2022/01/03 08:03:52;;;;;;;2.90;2.63;;;19.60;47.30;;;;;;5016093;28;20290;-68
2022/01/03 08:06:20;;;;;;;3.28;2.80;;;19.60;47.20;;;;;;5034094;28;20254;-71
2022/01/03 08:08:47;;;;;;;4.85;2.60;;;19.70;47.30;;;;;;5015992;28;20216;-71
2022/01/03 08:11:14;;;;;;;3.00;2.70;;;19.70;47.30;;;;;;5016308;28;20192;-70
2022/01/03 08:13:41;;;;;;;4.20;2.70;;;19.70;47.20;;;;;;5016046;28;20203;-70
2022/01/03 08:16:08;;;;;;;2.90;2.40;;;19.70;47.20;;;;;;5016414;28;20196;-71
2022/01/03 08:18:36;;;;;;;3.92;2.92;;;19.70;47.20;;;;;;5015948;28;20242;-70
2022/01/03 08:21:03;;;;;;;3.45;2.42;;;19.70;47.20;;;;;;5016096;28;20196;-67
2022/01/03 08:23:32;;;;;;;3.88;3.17;;;19.70;47.20;;;;;;5016303;28;20203;-70
2022/01/03 08:25:59;;;;;;;3.85;2.75;;;19.70;47.20;;;;;;5032549;28;20270;-70
2022/01/03 08:28:26;;;;;;;4.00;2.40;;;19.70;47.10;;;;;;5015913;28;20719;-70
2022/01/03 08:30:53;;;;;;;3.58;2.40;;;19.80;47.10;;;;;;5016251;28;20562;-69
2022/01/03 08:33:20;;;;;;;3.28;2.63;;;19.80;47.10;;;;;;5015833;28;20196;-71
2022/01/03 08:35:49;;;;;;;2.50;2.30;;;19.80;47.00;;;;;;5016357;28;20204;-70
2022/01/03 08:38:16;;;;;;;4.47;2.50;;;19.80;47.00;;;;;;5017439;28;20212;-70
2022/01/03 08:40:43;;;;;;;3.30;2.90;;;19.80;47.00;;;;;;5017951;28;20210;-68
2022/01/03 08:43:10;;;;;;;4.25;2.80;;;19.80;46.90;;;;;;5034392;28;20533;-70
2022/01/03 08:45:37;;;;;;;4.28;2.67;;;19.90;47.00;;;;;;5016347;28;20667;-70
2022/01/03 08:48:05;;;;;;;4.43;2.55;;;19.90;47.00;;;;;;5034106;28;20645;-71
2022/01/03 08:50:32;;;;;;;3.22;2.50;;;19.90;47.50;;;;;;5034393;28;20196;-70
2022/01/03 08:53:01;;;;;;;3.17;2.55;;;19.90;46.90;;;;;;5032703;28;20203;-71
2022/01/03 08:55:29;;;;;;;3.40;2.78;;;19.90;46.90;;;;;;5017510;28;20546;-69
2022/01/03 08:57:56;;;;;;;4.13;2.60;;;19.90;46.80;;;;;;5035939;28;20757;-69
2022/01/03 09:00:23;;;;;;;3.15;2.85;;;19.90;46.80;;;;;;5018724;28;20210;-69
2022/01/03 09:02:51;;;;;;;2.85;2.65;;;19.90;46.80;;;;;;5016866;28;20210;-70
2022/01/03 09:05:18;;;;;;;3.65;3.00;;;19.90;46.80;;;;;;5033834;28;20187;-70
2022/01/03 09:07:45;;;;;;;3.40;2.92;;;19.90;46.80;;;;;;5016290;28;20296;-69
2022/01/03 09:10:13;;;;;;;3.15;2.50;;;20.00;47.40;;;;;;5016236;28;20309;-71
2022/01/03 09:12:40;;;;;;;3.85;2.55;;;20.00;46.90;;;;;;5032309;28;20294;-70
2022/01/03 09:15:08;;;;;;;3.13;2.60;;;20.00;47.10;;;;;;5033408;28;20196;-69
2022/01/03 09:17:35;;;;;;;4.45;2.78;;;20.00;47.10;;;;;;5033286;28;20218;-69
2022/01/03 09:20:02;;;;;;;3.25;2.80;;;20.00;46.90;;;;;;5015668;28;20271;-71
2022/01/03 09:22:35;;;;;;;3.38;2.90;;;20.00;46.90;;;;;;5015347;28;20215;-70
2022/01/03 09:30:33;;;;;;;3.45;2.72;;;20.10;46.90;;;;;;5033063;28;20187;-70
2022/01/03 09:33:00;;;;;;;3.33;2.70;;;20.10;46.90;;;;;;5031909;28;20211;-71
2022/01/03 09:35:28;;;;;;;3.47;2.70;;;20.10;46.80;;;;;;5015164;28;20588;-70
2022/01/03 09:37:55;;;;;;;3.22;2.70;;;20.10;46.80;;;;;;5033028;28;20290;-69
2022/01/03 09:40:22;;;;;;;2.97;2.70;;;20.20;46.80;;;;;;5015171;28;20664;-68
2022/01/03 09:42:52;;;;;;;3.40;2.78;;;20.20;46.80;;;;;;5033120;28;20196;-70
2022/01/03 09:45:19;;;;;;;2.97;2.70;;;20.10;46.60;;;;;;5015150;28;20200;-70
2022/01/03 09:47:47;;;;;;;3.22;2.67;;;20.10;46.50;;;;;;5033040;28;20212;-70
2022/01/03 09:50:17;;;;;;;3.00;2.70;;;20.20;46.50;;;;;;5015358;28;20686;-70
2022/01/03 09:52:45;;;;;;;3.03;2.70;;;20.20;46.40;;;;;;5015185;28;20566;-70
2022/01/03 09:55:12;;;;;;;3.10;2.80;;;20.20;46.40;;;;;;5014701;28;20196;-70
2022/01/03 09:57:39;;;;;;;3.00;2.70;;;20.20;46.30;;;;;;5014827;28;20285;-71
2022/01/03 10:00:08;;;;;;;2.83;2.60;;;20.20;46.20;;;;;;5015268;28;20207;-67
2022/01/03 10:02:36;;;;;;;3.38;3.00;;;20.20;46.10;;;;;;5014910;28;20276;-69
2022/01/03 10:05:04;;;;;;;3.35;2.90;;;20.20;46.10;;;;;;5032577;28;20279;-71
2022/01/03 10:07:31;;;;;;;4.22;2.95;;;20.20;46.20;;;;;;5014673;28;20282;-71
2022/01/03 10:09:58;;;;;;;3.50;2.90;;;20.20;46.30;;;;;;5032714;28;20196;-70
2022/01/03 10:12:25;;;;;;;3.58;2.83;;;20.30;46.30;;;;;;5014640;28;20243;-69
2022/01/03 10:14:52;;;;;;;3.30;2.80;;;20.30;46.20;;;;;;5014459;28;20290;-71
2022/01/03 10:17:21;;;;;;;3.33;3.03;;;20.30;46.30;;;;;;5018411;28;20765;-70
2022/01/03 10:19:50;;;;;;;3.65;3.20;;;20.30;46.30;;;;;;5018817;28;20188;-69
2022/01/03 10:22:21;;;;;;;2.85;2.65;;;20.30;46.30;;;;;;5018307;28;20200;-69
2022/01/03 10:24:48;;;;;;;4.07;2.70;;;20.30;46.20;;;;;;5018460;28;20200;-70
2022/01/03 10:27:15;;;;;;;3.67;3.20;;;20.30;46.20;;;;;;5018052;28;20230;-71
2022/01/03 10:29:42;;;;;;;3.78;3.00;;;20.30;46.10;;;;;;5017986;28;20216;-71
2022/01/03 10:32:11;;;;;;;2.90;2.50;;;20.30;46.10;;;;;;5018209;28;20298;-68
2022/01/03 10:34:39;;;;;;;3.33;2.88;;;20.30;46.00;;;;;;5035753;28;20266;-69
2022/01/03 10:37:11;;;;;;;3.03;2.65;;;20.30;46.00;;;;;;5017769;28;20672;-70
2022/01/03 10:39:39;;;;;;;2.92;2.47;;;20.40;46.10;;;;;;5018812;28;20192;-69
2022/01/03 10:42:16;;;;;;;2.85;2.63;;;20.40;46.10;;;;;;5034959;28;20200;-69
2022/01/03 10:44:43;;;;;;;3.47;2.50;;;20.40;46.10;;;;;;5018693;28;20203;-69
2022/01/03 10:47:13;;;;;;;3.70;2.88;;;20.40;46.00;;;;;;5017684;28;20224;-69
2022/01/03 10:49:43;;;;;;;3.78;2.97;;;20.40;46.10;;;;;;5017691;28;20216;-68
2022/01/03 10:52:17;;;;;;;2.70;2.50;;;20.40;45.80;;;;;;5035704;28;20223;-71
2022/01/03 10:54:46;;;;;;;3.13;2.83;;;20.40;45.80;;;;;;5017730;28;20196;-67
2022/01/03 10:57:14;;;;;;;3.10;2.70;;;20.40;45.70;;;;;;5033978;28;20220;-70
2022/01/03 10:59:41;;;;;;;3.35;2.72;;;20.40;45.60;;;;;;5017425;28;20196;-70
2022/01/03 11:02:10;;;;;;;3.15;2.50;;;20.40;45.80;;;;;;5017435;28;20258;-70
2022/01/03 11:04:45;;;;;;;3.33;2.65;;;20.50;45.80;;;;;;5018106;28;20215;-70
2022/01/03 11:13:06;;;;;;;3.35;3.00;;;20.50;45.60;;;;;;5035194;28;20323;-67
2022/01/03 11:15:33;;;;;;;3.83;2.72;;;20.50;45.60;;;;;;5017409;28;20204;-69
2022/01/03 11:18:15;;;;;;;3.00;2.80;;;20.50;45.60;;;;;;5017434;28;20231;-71
2022/01/03 11:20:42;;;;;;;3.55;3.15;;;20.50;45.60;;;;;;5017762;28;20192;-70
2022/01/03 11:23:11;;;;;;;3.58;3.05;;;20.60;45.70;;;;;;5017586;28;20297;-68
2022/01/03 11:25:38;;;;;;;3.17;2.80;;;20.50;45.50;;;;;;5018254;28;20211;-67
2022/01/03 11:28:06;;;;;;;3.45;2.83;;;20.50;45.40;;;;;;5035592;28;20208;-70
2022/01/03 11:30:33;;;;;;;3.75;3.20;;;20.60;45.50;;;;;;5017169;28;20238;-70
2022/01/03 11:33:01;;;;;;;3.28;2.97;;;20.60;45.50;;;;;;5016917;28;20199;-70
2022/01/03 11:35:28;;;;;;;3.47;3.17;;;20.60;45.30;;;;;;5016873;28;20208;-69
2022/01/03 11:37:56;;;;;;;3.83;3.42;;;20.60;45.40;;;;;;5034648;28;20251;-70
2022/01/03 11:40:26;;;;;;;3.83;3.05;;;20.60;45.50;;;;;;5034510;28;20188;-71
2022/01/03 11:42:53;;;;;;;3.47;2.83;;;20.60;45.50;;;;;;5016594;28;20200;-71
2022/01/03 11:45:20;;;;;;;3.13;2.83;;;20.60;46.10;;;;;;5016829;28;20200;-67
2022/01/03 11:47:47;;;;;;;2.80;2.60;;;20.60;45.50;;;;;;5016833;28;20223;-68
2022/01/03 11:50:14;;;;;;;3.40;2.67;;;20.60;45.40;;;;;;5032961;28;20216;-71
2022/01/03 11:52:42;;;;;;;3.42;3.05;;;20.60;45.40;;;;;;5016759;28;20207;-69
2022/01/03 11:55:10;;;;;;;4.10;3.20;;;20.60;45.30;;;;;;5016569;28;20776;-70
2022/01/03 11:58:09;;;;;;;3.05;2.80;;;20.60;45.30;;;;;;5034163;28;20282;-70
2022/01/03 12:03:54;;;;;;;3.03;2.80;;;20.70;45.20;;;;;;5017341;28;20196;-70
2022/01/03 12:06:30;;;;;;;3.33;3.00;;;20.70;45.10;;;;;;5017243;28;20192;-70
2022/01/03 12:08:59;;;;;;;3.10;2.80;;;20.70;45.10;;;;;;5019223;28;20220;-71
2022/01/03 12:11:27;;;;;;;2.80;2.60;;;20.70;45.10;;;;;;5017286;28;20200;-70
2022/01/03 12:13:56;;;;;;;3.08;2.78;;;20.70;45.00;;;;;;5034189;28;20200;-68
2022/01/03 12:16:44;;;;;;;3.60;2.70;;;20.70;45.30;;;;;;5015967;28;20200;-69
2022/01/03 12:19:13;;;;;;;3.08;2.70;;;20.70;44.80;;;;;;5015794;28;20189;-71
2022/01/03 12:22:07;;;;;;;2.83;2.50;;;20.70;44.70;;;;;;5016136;28;20192;-69
2022/01/03 12:24:45;;;;;;;3.25;2.80;;;20.80;45.40;;;;;;5032727;28;20221;-71
2022/01/03 12:27:23;;;;;;;2.60;2.40;;;20.70;44.70;;;;;;5033957;28;20799;-70
2022/01/03 12:30:23;;;;;;;2.80;2.42;;;20.80;44.60;;;;;;5033451;28;20254;-70
2022/01/03 12:33:26;;;;;;;3.28;2.60;;;20.70;44.70;;;;;;4972339;28;20237;-70
2022/01/03 12:36:16;;;;;;;2.80;2.60;;;20.80;44.50;;;;;;5015973;28;20750;-70
2022/01/03 12:39:05;;;;;;;3.22;2.60;;;20.80;44.70;;;;;;5032862;28;20188;-71
2022/01/03 12:41:43;;;;;;;2.95;2.63;;;20.80;44.60;;;;;;5033177;28;20238;-71
2022/01/03 12:44:11;;;;;;;2.55;2.30;;;20.80;44.60;;;;;;5031874;28;20303;-69
2022/01/03 12:46:40;;;;;;;2.75;2.55;;;20.80;44.50;;;;;;5031758;28;20290;-70
2022/01/03 12:49:27;;;;;;;3.10;2.72;;;20.80;44.50;;;;;;5033123;28;20208;-70
2022/01/03 12:51:54;;;;;;;2.58;2.38;;;20.80;45.00;;;;;;5033259;28;20188;-70
2022/01/03 12:54:42;;;;;;;2.95;2.60;;;20.80;44.50;;;;;;5029772;28;20246;-70
2022/01/03 12:57:14;;;;;;;2.97;2.38;;;20.80;44.50;;;;;;5015225;28;20326;-66
2022/01/03 12:59:41;;;;;;;3.72;2.70;;;20.80;44.50;;;;;;5015024;28;20208;-69
2022/01/03 13:02:31;;;;;;;3.17;2.17;;;20.80;44.50;;;;;;5031507;28;20206;-70
2022/01/03 13:05:01;;;;;;;2.92;2.40;;;20.80;44.40;;;;;;5015147;28;20226;-70
2022/01/03 13:07:28;;;;;;;2.80;2.50;;;20.80;44.30;;;;;;5015157;28;20224;-70
2022/01/03 13:09:56;;;;;;;3.10;2.70;;;20.80;44.30;;;;;;5014950;28;20310;-70
2022/01/03 13:12:23;;;;;;;2.78;2.38;;;20.80;44.30;;;;;;5015070;28;20222;-70
2022/01/03 13:14:50;;;;;;;3.47;2.60;;;20.80;44.30;;;;;;5015121;28;20299;-71
2022/01/03 13:17:17;;;;;;;4.88;3.92;;;20.80;44.30;;;;;;5015040;28;20219;-70
2022/01/03 13:19:45;;;;;;;6.78;4.40;;;20.80;44.30;;;;;;5015302;28;20566;-67